createdAt,value
2023-05-05T00:01:54.521Z,15.40
2023-05-05T00:04:24.213Z,16.40
2023-05-05T00:06:51.181Z,19.23
2023-05-05T00:09:18.206Z,19.63
2023-05-05T00:11:45.129Z,20.80
2023-05-05T00:14:12.049Z,21.20
2023-05-05T00:16:38.954Z,23.07
2023-05-05T00:19:06.845Z,23.27
2023-05-05T00:21:34.769Z,22.53
2023-05-05T00:24:02.746Z,22.98
2023-05-05T00:26:29.895Z,22.90
2023-05-05T00:28:57.028Z,21.40
2023-05-05T00:31:23.904Z,22.08
2023-05-05T00:33:50.755Z,21.50
2023-05-05T00:36:17.844Z,20.10
2023-05-05T00:38:44.725Z,18.90
2023-05-05T00:41:11.646Z,18.80
2023-05-05T00:43:39.543Z,18.10
2023-05-05T00:46:26.080Z,17.17
2023-05-05T00:48:53.269Z,18.63
2023-05-05T00:51:20.641Z,18.55
2023-05-05T00:53:48.278Z,17.55
2023-05-05T00:56:16.878Z,17.50
2023-05-05T00:58:43.871Z,18.00
2023-05-05T01:01:11.893Z,17.77
2023-05-05T01:03:39.915Z,17.30
2023-05-05T01:06:08.203Z,17.00
2023-05-05T01:08:44.230Z,17.20
2023-05-05T01:11:26.807Z,17.30
2023-05-05T01:14:13.714Z,16.80
2023-05-05T01:16:43.143Z,17.67
2023-05-05T01:19:13.096Z,17.13
2023-05-05T01:21:46.921Z,16.90
2023-05-05T01:24:28.253Z,18.73
2023-05-05T01:27:29.200Z,17.55
2023-05-05T01:30:08.958Z,16.07
2023-05-05T01:32:41.319Z,18.20
2023-05-05T01:35:15.472Z,18.13
2023-05-05T01:37:57.434Z,17.93
2023-05-05T01:40:26.951Z,17.93
2023-05-05T01:42:55.781Z,16.90
2023-05-05T01:45:24.945Z,16.93
2023-05-05T01:47:52.166Z,17.87
2023-05-05T01:50:19.053Z,17.87
2023-05-05T01:52:46.115Z,17.67
2023-05-05T01:55:13.038Z,17.63
2023-05-05T01:57:39.899Z,19.13
2023-05-05T02:00:07.841Z,19.63
2023-05-05T02:02:36.199Z,19.50
2023-05-05T02:05:03.418Z,20.40
2023-05-05T02:07:30.373Z,19.73
2023-05-05T02:09:57.280Z,19.23
2023-05-05T02:12:24.158Z,20.65
2023-05-05T02:14:52.038Z,20.53
2023-05-05T02:17:18.902Z,21.63
2023-05-05T02:19:46.795Z,21.03
2023-05-05T02:22:16.543Z,21.00
2023-05-05T02:24:43.826Z,21.20
2023-05-05T02:27:10.858Z,20.73
2023-05-05T02:29:49.140Z,20.37
2023-05-05T02:32:22.477Z,19.23
2023-05-05T02:34:49.675Z,19.27
2023-05-05T02:37:19.968Z,20.67
2023-05-05T02:39:51.765Z,19.77
2023-05-05T02:42:19.722Z,20.03
2023-05-05T02:44:46.731Z,20.03
2023-05-05T02:47:13.746Z,19.97
2023-05-05T02:49:40.596Z,20.90
2023-05-05T02:52:13.316Z,20.97
2023-05-05T02:54:40.382Z,21.33
2023-05-05T02:57:07.422Z,21.97
2023-05-05T02:59:47.521Z,20.73
2023-05-05T03:02:41.810Z,19.47
2023-05-05T03:05:17.423Z,20.67
2023-05-05T03:07:50.123Z,20.47
2023-05-05T03:10:18.653Z,20.10
2023-05-05T03:12:56.747Z,21.03
2023-05-05T03:15:37.857Z,20.97
2023-05-05T03:18:04.734Z,20.13
2023-05-05T03:20:32.584Z,20.80
2023-05-05T03:23:01.595Z,20.80
2023-05-05T03:25:48.661Z,20.27
2023-05-05T03:28:16.018Z,21.23
2023-05-05T03:30:42.904Z,20.87
2023-05-05T03:33:11.359Z,21.70
2023-05-05T03:35:38.258Z,21.53
2023-05-05T03:38:05.106Z,22.33
2023-05-05T03:40:43.746Z,22.53
2023-05-05T03:43:14.345Z,21.10
2023-05-05T03:45:43.246Z,21.47
2023-05-05T03:48:10.191Z,20.30
2023-05-05T03:50:37.697Z,20.73
2023-05-05T03:53:04.649Z,20.43
2023-05-05T03:55:31.538Z,19.60
2023-05-05T03:57:58.406Z,20.97
2023-05-05T04:00:25.327Z,19.63
2023-05-05T04:02:52.236Z,19.13
2023-05-05T04:05:19.976Z,21.47
2023-05-05T04:07:46.801Z,19.60
2023-05-05T04:10:13.692Z,19.93
2023-05-05T04:12:40.609Z,19.67
2023-05-05T04:15:09.004Z,18.97
2023-05-05T04:17:36.084Z,19.80
2023-05-05T04:20:03.078Z,18.92
2023-05-05T04:22:29.938Z,18.50
2023-05-05T04:24:56.912Z,18.90
2023-05-05T04:27:26.193Z,18.37
2023-05-05T04:29:54.107Z,17.73
2023-05-05T04:32:21.026Z,17.67
2023-05-05T04:34:48.003Z,18.50
2023-05-05T04:37:14.866Z,17.30
2023-05-05T04:39:41.721Z,18.13
2023-05-05T04:42:09.072Z,16.83
2023-05-05T04:44:36.022Z,17.47
2023-05-05T04:47:03.135Z,17.50
2023-05-05T04:49:30.427Z,18.20
2023-05-05T04:51:57.322Z,18.27
2023-05-05T04:54:24.260Z,17.40
2023-05-05T04:56:51.224Z,16.87
2023-05-05T04:59:18.189Z,17.57
2023-05-05T05:01:45.287Z,16.70
2023-05-05T05:04:12.881Z,16.00
2023-05-05T05:06:39.716Z,17.47
2023-05-05T05:09:06.635Z,17.40
2023-05-05T05:11:33.473Z,17.27
2023-05-05T05:14:00.301Z,15.77
2023-05-05T05:16:27.281Z,15.80
2023-05-05T05:18:54.827Z,17.30
2023-05-05T05:21:21.727Z,16.60
2023-05-05T05:23:48.577Z,15.67
2023-05-05T05:26:16.743Z,16.10
2023-05-05T05:28:43.627Z,14.93
2023-05-05T05:31:10.466Z,16.17
2023-05-05T05:33:38.411Z,15.50
2023-05-05T05:36:06.420Z,15.30
2023-05-05T05:38:33.386Z,15.03
2023-05-05T05:41:00.364Z,14.45
2023-05-05T05:43:27.210Z,13.73
2023-05-05T05:45:54.215Z,14.10
2023-05-05T05:48:22.249Z,12.67
2023-05-05T05:50:49.112Z,12.70
2023-05-05T05:53:16.162Z,13.10
2023-05-05T05:55:43.029Z,13.17
2023-05-05T05:58:09.860Z,13.00
2023-05-05T06:00:37.754Z,12.60
2023-05-05T06:03:04.681Z,11.37
2023-05-05T06:05:32.788Z,11.20
2023-05-05T06:07:59.654Z,12.05
2023-05-05T06:10:28.373Z,11.57
2023-05-05T06:12:55.666Z,12.45
2023-05-05T06:15:22.711Z,11.32
2023-05-05T06:17:49.595Z,10.73
2023-05-05T06:20:16.649Z,11.20
2023-05-05T06:22:44.492Z,10.87
2023-05-05T06:25:11.746Z,11.07
2023-05-05T06:27:38.634Z,10.95
2023-05-05T06:30:06.961Z,9.85
2023-05-05T06:32:34.101Z,10.23
2023-05-05T06:35:01.024Z,9.63
2023-05-05T06:37:27.868Z,9.90
2023-05-05T06:39:54.764Z,9.73
2023-05-05T06:42:21.590Z,8.95
2023-05-05T06:44:48.488Z,9.52
2023-05-05T06:47:15.933Z,8.73
2023-05-05T06:49:43.779Z,10.38
2023-05-05T06:52:10.633Z,9.80
2023-05-05T06:54:37.506Z,10.07
2023-05-05T06:57:05.372Z,9.23
2023-05-05T06:59:32.546Z,8.75
2023-05-05T07:01:59.610Z,9.75
2023-05-05T07:04:26.951Z,8.90
2023-05-05T07:06:55.284Z,8.48
2023-05-05T07:09:22.170Z,8.43
2023-05-05T07:11:49.060Z,8.45
2023-05-05T07:14:15.958Z,8.10
2023-05-05T07:16:42.901Z,9.60
2023-05-05T07:19:09.794Z,9.60
2023-05-05T07:21:36.948Z,9.35
2023-05-05T07:24:04.214Z,9.73
2023-05-05T07:26:31.206Z,10.15
2023-05-05T07:28:58.958Z,9.65
2023-05-05T07:31:26.630Z,9.07
2023-05-05T07:33:53.763Z,8.80
2023-05-05T07:36:27.984Z,8.55
2023-05-05T07:38:54.919Z,8.25
2023-05-05T07:41:21.923Z,9.27
2023-05-05T07:43:48.798Z,8.10
2023-05-05T07:46:15.711Z,8.02
2023-05-05T07:48:42.746Z,8.10
2023-05-05T07:51:10.117Z,8.43
2023-05-05T07:53:37.381Z,6.90
2023-05-05T07:56:04.294Z,6.55
2023-05-05T07:58:31.203Z,5.25
2023-05-05T08:00:58.064Z,5.40
2023-05-05T08:03:25.255Z,5.40
2023-05-05T08:05:54.141Z,4.90
2023-05-05T08:08:24.802Z,4.40
2023-05-05T08:10:53.195Z,4.85
2023-05-05T08:13:20.494Z,4.22
2023-05-05T08:15:47.625Z,4.45
2023-05-05T08:18:14.702Z,4.18
2023-05-05T08:20:41.749Z,4.32
2023-05-05T08:23:08.648Z,4.47
2023-05-05T08:25:35.528Z,4.38
2023-05-05T08:28:02.475Z,4.35
2023-05-05T08:30:29.519Z,4.60
2023-05-05T08:32:56.574Z,4.13
2023-05-05T08:35:24.243Z,4.70
2023-05-05T08:37:51.850Z,4.57
2023-05-05T08:40:20.894Z,4.20
2023-05-05T08:42:48.204Z,4.80
2023-05-05T08:45:15.944Z,4.45
2023-05-05T08:47:43.544Z,5.43
2023-05-05T08:50:11.210Z,5.70
2023-05-05T08:52:44.129Z,4.88
2023-05-05T08:55:26.546Z,4.32
2023-05-05T08:57:56.513Z,4.13
2023-05-05T09:00:23.915Z,4.57
2023-05-05T09:02:50.878Z,4.30
2023-05-05T09:05:18.278Z,3.55
2023-05-05T09:07:45.346Z,3.83
2023-05-05T09:10:12.577Z,4.13
2023-05-05T09:12:42.173Z,4.78
2023-05-05T09:15:10.657Z,3.95
2023-05-05T09:17:38.354Z,4.35
2023-05-05T09:20:09.286Z,5.32
2023-05-05T09:22:40.603Z,5.53
2023-05-05T09:25:14.730Z,5.05
2023-05-05T09:27:43.360Z,4.85
2023-05-05T09:30:11.687Z,5.50
2023-05-05T09:32:46.048Z,6.15
2023-05-05T09:35:13.047Z,4.90
2023-05-05T09:37:39.911Z,5.60
2023-05-05T09:40:09.191Z,5.53
2023-05-05T09:42:37.210Z,5.45
2023-05-05T09:45:17.168Z,5.68
2023-05-05T09:47:45.724Z,4.60
2023-05-05T09:50:16.324Z,6.32
2023-05-05T09:52:43.362Z,5.53
2023-05-05T09:55:19.374Z,5.70
2023-05-05T09:57:47.497Z,6.35
2023-05-05T10:00:14.990Z,6.40
2023-05-05T10:02:42.094Z,6.05
2023-05-05T10:05:09.326Z,6.75
2023-05-05T10:07:37.007Z,7.40
2023-05-05T10:10:05.141Z,6.68
2023-05-05T10:12:32.662Z,7.97
2023-05-05T10:15:02.374Z,7.85
2023-05-05T10:20:18.847Z,6.53
2023-05-05T10:22:55.154Z,5.30
2023-05-05T10:25:31.684Z,5.35
2023-05-05T10:28:00.249Z,5.63
2023-05-05T10:30:30.114Z,5.13
2023-05-05T10:33:31.664Z,5.10
2023-05-05T10:36:01.923Z,5.32
2023-05-05T10:38:30.806Z,6.32
2023-05-05T10:40:59.273Z,6.03
2023-05-05T10:43:26.829Z,6.03
2023-05-05T10:45:53.948Z,7.18
2023-05-05T10:48:45.078Z,5.70
2023-05-05T10:51:39.838Z,6.30
2023-05-05T10:54:16.422Z,6.60
2023-05-05T10:56:43.489Z,7.35
2023-05-05T10:59:38.513Z,6.78
2023-05-05T11:02:24.134Z,6.80
2023-05-05T11:05:23.714Z,6.40
2023-05-05T11:07:51.638Z,7.35
2023-05-05T11:10:20.802Z,10.68
2023-05-05T11:13:03.237Z,11.75
2023-05-05T11:15:30.385Z,11.25
2023-05-05T11:17:58.181Z,10.30
2023-05-05T11:20:39.606Z,10.02
2023-05-05T11:23:06.653Z,10.90
2023-05-05T11:25:37.408Z,11.07
2023-05-05T11:28:21.266Z,10.07
2023-05-05T11:30:58.813Z,9.95
2023-05-05T11:33:32.726Z,8.80
2023-05-05T11:36:07.146Z,9.18
2023-05-05T11:39:05.557Z,9.00
2023-05-05T11:41:32.540Z,6.55
2023-05-05T11:44:29.654Z,6.68
2023-05-05T11:47:02.853Z,5.68
2023-05-05T11:49:32.900Z,5.40
2023-05-05T11:52:12.719Z,6.68
2023-05-05T11:54:41.562Z,8.85
2023-05-05T11:57:09.105Z,6.25
2023-05-05T11:59:37.517Z,5.60
2023-05-05T12:02:04.714Z,6.60
2023-05-05T12:04:32.080Z,6.40
2023-05-05T12:06:59.134Z,6.00
2023-05-05T12:09:26.688Z,5.50
2023-05-05T12:11:57.604Z,6.55
2023-05-05T12:14:25.092Z,5.82
2023-05-05T12:16:58.082Z,6.15
2023-05-05T12:19:30.131Z,6.55
2023-05-05T12:21:57.214Z,5.63
2023-05-05T12:24:24.133Z,5.75
2023-05-05T12:26:51.770Z,6.28
2023-05-05T12:29:26.219Z,5.15
2023-05-05T12:31:53.154Z,3.85
2023-05-05T12:34:21.354Z,3.75
2023-05-05T12:36:48.265Z,2.92
2023-05-05T12:39:15.289Z,3.20
2023-05-05T12:41:42.277Z,4.30
2023-05-05T12:44:09.303Z,3.53
2023-05-05T12:46:49.174Z,3.17
2023-05-05T12:49:16.952Z,3.67
2023-05-05T12:51:55.093Z,4.13
2023-05-05T12:54:23.875Z,4.63
2023-05-05T12:56:51.315Z,4.60
2023-05-05T12:59:21.271Z,7.10
2023-05-05T13:01:54.471Z,7.35
2023-05-05T13:04:23.083Z,7.40
2023-05-05T13:07:11.689Z,9.15
2023-05-05T13:09:38.715Z,10.65
2023-05-05T13:12:07.180Z,11.07
2023-05-05T13:14:36.998Z,10.13
2023-05-05T13:17:03.964Z,10.88
2023-05-05T13:19:30.963Z,13.07
2023-05-05T13:21:58.421Z,12.25
2023-05-05T13:24:37.834Z,11.98
2023-05-05T13:27:12.696Z,13.45
2023-05-05T13:29:41.733Z,14.05
2023-05-05T13:32:08.667Z,12.50
2023-05-05T13:34:35.742Z,11.80
2023-05-05T13:37:02.621Z,11.10
2023-05-05T13:39:29.450Z,10.23
2023-05-05T13:41:56.353Z,11.82
2023-05-05T13:44:23.214Z,12.57
2023-05-05T13:46:50.128Z,12.57
2023-05-05T13:49:17.325Z,12.07
2023-05-05T13:51:45.200Z,14.88
2023-05-05T13:54:12.122Z,14.13
2023-05-05T13:56:39.121Z,14.55
2023-05-05T13:59:05.990Z,14.43
2023-05-05T14:01:32.947Z,13.27
2023-05-05T14:04:00.974Z,14.50
2023-05-05T14:06:29.781Z,14.05
2023-05-05T14:08:56.705Z,13.02
2023-05-05T14:11:23.572Z,13.43
2023-05-05T14:13:50.459Z,12.55
2023-05-05T14:16:17.396Z,10.68
2023-05-05T14:18:44.377Z,10.57
2023-05-05T14:21:11.306Z,10.10
2023-05-05T14:23:38.191Z,9.43
2023-05-05T14:26:05.140Z,10.57
2023-05-05T14:28:32.026Z,9.68
2023-05-05T14:30:58.869Z,9.65
2023-05-05T14:33:25.905Z,10.30
2023-05-05T14:35:52.778Z,8.23
2023-05-05T14:38:19.768Z,7.45
2023-05-05T14:40:46.695Z,7.30
2023-05-05T14:43:13.573Z,5.60
2023-05-05T14:45:40.461Z,6.18
2023-05-05T14:48:07.400Z,7.60
2023-05-05T14:50:34.272Z,6.63
2023-05-05T14:53:01.205Z,7.03
2023-05-05T14:55:28.130Z,4.60
2023-05-05T14:57:54.987Z,5.10
2023-05-05T15:00:21.855Z,4.95
2023-05-05T15:02:48.852Z,4.93
2023-05-05T15:05:16.015Z,5.03
2023-05-05T15:07:43.047Z,4.68
2023-05-05T15:10:10.398Z,3.85
2023-05-05T15:12:37.346Z,5.00
2023-05-05T15:15:05.748Z,4.68
2023-05-05T15:17:32.771Z,5.20
2023-05-05T15:19:59.673Z,4.68
2023-05-05T15:22:26.663Z,3.53
2023-05-05T15:24:53.510Z,4.47
2023-05-05T15:27:20.348Z,4.40
2023-05-05T15:29:47.296Z,4.80
2023-05-05T15:32:14.272Z,4.63
2023-05-05T15:34:41.289Z,4.78
2023-05-05T15:37:08.234Z,3.65
2023-05-05T15:39:35.090Z,4.68
2023-05-05T15:42:05.038Z,3.95
2023-05-05T15:44:32.059Z,3.85
2023-05-05T15:46:59.005Z,4.72
2023-05-05T15:49:27.959Z,4.13
2023-05-05T15:51:54.871Z,3.90
2023-05-05T15:54:21.751Z,4.47
2023-05-05T15:56:49.588Z,3.95
2023-05-05T15:59:16.455Z,3.22
2023-05-05T16:01:43.415Z,3.00
2023-05-05T16:04:10.400Z,2.90
2023-05-05T16:06:37.238Z,3.90
2023-05-05T16:09:04.583Z,4.03
2023-05-05T16:11:31.428Z,4.25
2023-05-05T16:13:59.965Z,4.00
2023-05-05T16:16:27.183Z,3.30
2023-05-05T16:18:54.096Z,2.72
2023-05-05T16:21:20.957Z,3.50
2023-05-05T16:23:47.919Z,3.38
2023-05-05T16:26:14.750Z,3.25
2023-05-05T16:28:41.661Z,4.15
2023-05-05T16:31:10.773Z,3.33
2023-05-05T16:33:43.561Z,3.38
2023-05-05T16:36:11.504Z,3.05
2023-05-05T16:38:39.047Z,3.40
2023-05-05T16:41:07.245Z,3.70
2023-05-05T16:43:34.849Z,3.78
2023-05-05T16:46:03.858Z,4.03
2023-05-05T16:48:30.706Z,4.00
2023-05-05T16:50:57.911Z,3.50
2023-05-05T16:53:25.091Z,3.97
2023-05-05T16:55:52.603Z,4.18
2023-05-05T16:58:20.387Z,4.22
2023-05-05T17:00:49.261Z,3.78
2023-05-05T17:03:19.225Z,3.72
2023-05-05T17:05:49.667Z,3.35
2023-05-05T17:08:16.961Z,3.80
2023-05-05T17:10:44.588Z,3.33
2023-05-05T17:13:13.226Z,3.03
2023-05-05T17:15:40.588Z,3.67
2023-05-05T17:18:07.972Z,3.85
2023-05-05T17:20:34.972Z,3.70
2023-05-05T17:23:05.209Z,4.03
2023-05-05T17:25:33.210Z,4.28
2023-05-05T17:28:00.130Z,3.40
2023-05-05T17:30:27.022Z,2.70
2023-05-05T17:32:54.051Z,3.15
2023-05-05T17:35:21.329Z,3.35
2023-05-05T17:37:48.185Z,3.00
2023-05-05T17:40:15.053Z,3.90
2023-05-05T17:42:41.952Z,4.47
2023-05-05T17:45:10.643Z,4.65
2023-05-05T17:47:37.778Z,4.22
2023-05-05T17:50:07.121Z,3.00
2023-05-05T17:52:33.995Z,3.80
2023-05-05T17:55:00.923Z,3.92
2023-05-05T17:57:28.683Z,4.13
2023-05-05T17:59:55.653Z,3.42
2023-05-05T18:02:23.916Z,3.83
2023-05-05T18:04:50.984Z,3.45
2023-05-05T18:07:17.891Z,3.65
2023-05-05T18:09:44.844Z,3.47
2023-05-05T18:12:11.855Z,4.75
2023-05-05T18:14:38.693Z,3.83
2023-05-05T18:17:05.581Z,3.95
2023-05-05T18:19:33.671Z,4.30
2023-05-05T18:22:00.597Z,3.53
2023-05-05T18:24:28.525Z,3.83
2023-05-05T18:26:55.534Z,4.00
2023-05-05T18:29:22.567Z,3.55
2023-05-05T18:31:53.055Z,4.82
2023-05-05T18:34:21.145Z,3.70
2023-05-05T18:36:51.051Z,4.20
2023-05-05T18:39:17.992Z,4.75
2023-05-05T18:41:44.913Z,4.53
2023-05-05T18:44:11.952Z,4.05
2023-05-05T18:46:38.899Z,4.47
2023-05-05T18:49:05.870Z,4.93
2023-05-05T18:51:32.791Z,5.03
2023-05-05T18:54:00.873Z,4.82
2023-05-05T18:56:27.900Z,3.92
2023-05-05T18:58:54.820Z,3.88
2023-05-05T19:01:24.855Z,4.10
2023-05-05T19:03:51.788Z,5.15
2023-05-05T19:06:18.726Z,4.22
2023-05-05T19:08:46.023Z,4.10
2023-05-05T19:11:14.801Z,4.38
2023-05-05T19:13:41.824Z,4.97
2023-05-05T19:16:08.822Z,4.78
2023-05-05T19:18:35.749Z,5.18
2023-05-05T19:21:02.758Z,4.45
2023-05-05T19:23:29.726Z,5.95
2023-05-05T19:25:56.554Z,6.00
2023-05-05T19:28:23.563Z,5.60
2023-05-05T19:30:50.404Z,5.15
2023-05-05T19:33:17.364Z,5.75
2023-05-05T19:35:44.464Z,5.30
2023-05-05T19:38:12.011Z,5.93
2023-05-05T19:40:39.288Z,4.85
2023-05-05T19:43:07.409Z,5.13
2023-05-05T19:45:34.286Z,5.00
2023-05-05T19:48:01.756Z,5.47
2023-05-05T19:50:30.352Z,5.40
2023-05-05T19:52:57.831Z,5.65
2023-05-05T19:55:24.892Z,5.93
2023-05-05T19:57:51.778Z,6.75
2023-05-05T20:00:19.678Z,6.38
2023-05-05T20:02:47.426Z,7.30
2023-05-05T20:05:16.396Z,7.40
2023-05-05T20:07:44.326Z,7.30
2023-05-05T20:10:13.369Z,6.90
2023-05-05T20:12:48.458Z,8.27
2023-05-05T20:15:19.040Z,7.18
2023-05-05T20:17:49.243Z,7.50
2023-05-05T20:20:21.386Z,7.05
2023-05-05T20:22:48.472Z,7.30
2023-05-05T20:25:16.402Z,7.32
2023-05-05T20:27:43.751Z,8.35
2023-05-05T20:30:12.123Z,8.05
2023-05-05T20:32:39.142Z,7.93
2023-05-05T20:35:07.666Z,8.82
2023-05-05T20:37:34.597Z,9.02
2023-05-05T20:40:02.557Z,8.40
2023-05-05T20:42:29.894Z,9.07
2023-05-05T20:44:57.044Z,9.90
2023-05-05T20:47:24.385Z,9.43
2023-05-05T20:49:53.378Z,9.93
2023-05-05T20:52:21.257Z,10.30
2023-05-05T20:54:49.196Z,9.90
2023-05-05T20:57:16.016Z,11.80
2023-05-05T20:59:42.916Z,11.50
2023-05-05T21:02:09.793Z,10.60
2023-05-05T21:04:36.697Z,11.50
2023-05-05T21:07:03.739Z,11.63
2023-05-05T21:09:31.521Z,12.77
2023-05-05T21:11:58.530Z,11.32
2023-05-05T21:14:25.477Z,11.50
2023-05-05T21:16:52.352Z,11.88
2023-05-05T21:19:19.342Z,13.00
2023-05-05T21:21:46.286Z,12.30
2023-05-05T21:24:13.261Z,12.02
2023-05-05T21:26:45.951Z,12.30
2023-05-05T21:29:12.873Z,12.73
2023-05-05T21:31:39.774Z,12.48
2023-05-05T21:34:06.770Z,13.10
2023-05-05T21:36:34.022Z,13.13
2023-05-05T21:39:01.184Z,12.43
2023-05-05T21:41:28.323Z,12.07
2023-05-05T21:43:56.226Z,12.63
2023-05-05T21:46:23.285Z,12.93
2023-05-05T21:48:50.339Z,12.93
2023-05-05T21:51:17.482Z,14.18
2023-05-05T21:53:44.449Z,12.80
2023-05-05T21:56:11.474Z,11.90
2023-05-05T21:58:38.399Z,13.15
2023-05-05T22:01:05.525Z,14.18
2023-05-05T22:03:34.330Z,13.52
2023-05-05T22:06:01.393Z,13.52
2023-05-05T22:08:28.371Z,13.90
2023-05-05T22:10:55.249Z,13.77
2023-05-05T22:13:22.235Z,12.30
2023-05-05T22:15:49.320Z,12.47
2023-05-05T22:18:16.296Z,13.00
2023-05-05T22:20:43.989Z,13.43
2023-05-05T22:23:10.873Z,12.73
2023-05-05T22:25:37.796Z,12.90
2023-05-05T22:28:05.034Z,15.02
2023-05-05T22:30:31.895Z,13.10
2023-05-05T22:32:58.855Z,12.60
2023-05-05T22:35:25.774Z,13.43
2023-05-05T22:37:52.719Z,13.00
2023-05-05T22:40:19.614Z,12.73
2023-05-05T22:42:46.489Z,12.53
2023-05-05T22:45:13.545Z,11.90
2023-05-05T22:47:40.779Z,13.43
2023-05-05T22:50:08.397Z,14.10
2023-05-05T22:52:35.506Z,13.73
2023-05-05T22:55:02.598Z,13.47
2023-05-05T22:57:30.523Z,13.00
2023-05-05T22:59:57.527Z,12.23
2023-05-05T23:02:26.764Z,12.47
2023-05-05T23:04:53.828Z,12.85
2023-05-05T23:07:20.877Z,12.83
2023-05-05T23:09:47.968Z,12.60
2023-05-05T23:12:15.922Z,12.97
2023-05-05T23:14:44.012Z,12.77
2023-05-05T23:17:10.900Z,11.60
2023-05-05T23:19:37.743Z,11.90
2023-05-05T23:22:04.784Z,12.77
2023-05-05T23:24:31.727Z,13.03
2023-05-05T23:26:59.670Z,12.83
2023-05-05T23:29:27.629Z,13.67
2023-05-05T23:31:54.547Z,12.77
2023-05-05T23:34:21.419Z,12.70
2023-05-05T23:36:48.338Z,12.73
2023-05-05T23:39:15.203Z,11.93
2023-05-05T23:41:44.408Z,12.07
2023-05-05T23:44:11.282Z,12.63
2023-05-05T23:46:38.288Z,12.90
2023-05-05T23:49:05.180Z,12.10
2023-05-05T23:51:32.178Z,10.83
2023-05-05T23:53:59.115Z,11.33
2023-05-05T23:56:26.384Z,10.93
2023-05-05T23:58:54.303Z,11.13
